createdAt,value
2023-03-27T00:02:59.713Z,67.61
2023-03-27T00:08:03.533Z,67.66
2023-03-27T00:13:07.367Z,68.07
2023-03-27T00:18:10.460Z,68.19
2023-03-27T00:23:13.457Z,68.25
2023-03-27T00:28:18.030Z,68.44
2023-03-27T00:33:21.565Z,68.48
2023-03-27T00:38:24.651Z,68.70
2023-03-27T00:43:34.358Z,68.56
2023-03-27T00:48:38.011Z,68.77
2023-03-27T00:53:42.716Z,69.10
2023-03-27T00:59:05.982Z,69.13
2023-03-27T01:04:09.229Z,69.38
2023-03-27T01:09:20.569Z,69.77
2023-03-27T01:14:30.591Z,69.83
2023-03-27T01:20:05.920Z,69.68
2023-03-27T01:25:32.104Z,69.82
2023-03-27T01:30:42.434Z,69.68
2023-03-27T01:36:27.527Z,69.91
2023-03-27T01:41:40.782Z,69.83
2023-03-27T01:47:13.888Z,69.74
2023-03-27T01:52:25.184Z,69.58
2023-03-27T01:57:37.403Z,69.63
2023-03-27T02:03:09.612Z,69.58
2023-03-27T02:08:43.790Z,69.75
2023-03-27T02:14:00.642Z,69.31
2023-03-27T02:19:30.258Z,69.01
2023-03-27T02:24:33.218Z,69.29
2023-03-27T02:29:56.401Z,69.85
2023-03-27T02:35:02.932Z,69.78
2023-03-27T02:40:39.891Z,69.68
2023-03-27T02:45:55.191Z,69.67
2023-03-27T02:50:59.943Z,69.71
2023-03-27T02:56:06.949Z,69.70
2023-03-27T03:01:13.779Z,69.75
2023-03-27T03:06:18.257Z,70.01
2023-03-27T03:11:22.200Z,70.31
2023-03-27T03:16:26.108Z,70.32
2023-03-27T03:21:29.159Z,70.49
2023-03-27T03:26:32.350Z,70.93
2023-03-27T03:31:44.624Z,70.83
2023-03-27T03:36:50.521Z,70.89
2023-03-27T03:41:53.605Z,71.34
2023-03-27T03:46:56.526Z,71.24
2023-03-27T03:52:03.905Z,71.08
2023-03-27T03:57:08.907Z,70.79
2023-03-27T04:02:12.434Z,70.76
2023-03-27T04:07:17.898Z,71.12
2023-03-27T04:12:21.034Z,71.36
2023-03-27T04:17:26.561Z,71.25
2023-03-27T04:22:29.737Z,71.28
2023-03-27T04:27:32.769Z,71.49
2023-03-27T04:32:36.844Z,71.22
2023-03-27T04:37:43.184Z,71.65
2023-03-27T04:42:46.285Z,71.64
2023-03-27T04:47:49.450Z,72.09
2023-03-27T04:52:58.441Z,72.40
2023-03-27T04:58:02.511Z,72.80
2023-03-27T05:03:05.608Z,72.65
2023-03-27T05:08:08.748Z,72.48
2023-03-27T05:13:12.449Z,72.16
2023-03-27T05:18:16.180Z,72.01
2023-03-27T05:23:19.220Z,72.28
2023-03-27T05:28:25.492Z,72.01
2023-03-27T05:33:28.897Z,72.15
2023-03-27T05:38:31.810Z,72.70
2023-03-27T05:43:34.798Z,73.03
2023-03-27T05:48:38.743Z,72.57
2023-03-27T05:53:41.677Z,72.73
2023-03-27T05:58:44.624Z,72.50
2023-03-27T06:03:49.276Z,71.87
2023-03-27T06:08:53.347Z,71.68
2023-03-27T06:13:58.083Z,71.86
2023-03-27T06:19:01.571Z,71.74
2023-03-27T06:24:04.858Z,71.77
2023-03-27T06:29:08.844Z,71.92
2023-03-27T06:34:15.180Z,71.59
2023-03-27T06:39:18.227Z,71.67
2023-03-27T06:44:21.194Z,71.49
2023-03-27T06:49:24.290Z,72.05
2023-03-27T06:54:27.262Z,71.83
2023-03-27T06:59:30.770Z,72.05
2023-03-27T07:04:33.890Z,71.88
2023-03-27T07:09:39.439Z,71.87
2023-03-27T07:14:43.077Z,72.19
2023-03-27T07:19:46.709Z,72.46
2023-03-27T07:24:49.708Z,73.03
2023-03-27T07:29:54.364Z,72.90
2023-03-27T07:34:57.418Z,72.84
2023-03-27T07:40:00.354Z,72.51
2023-03-27T07:45:04.379Z,72.95
2023-03-27T07:50:10.370Z,73.11
2023-03-27T07:55:18.935Z,73.36
2023-03-27T08:00:25.956Z,73.35
2023-03-27T08:05:29.114Z,73.43
2023-03-27T08:10:32.094Z,73.32
2023-03-27T08:15:35.057Z,72.64
2023-03-27T08:20:39.021Z,72.55
2023-03-27T08:25:42.984Z,72.97
2023-03-27T08:30:46.406Z,73.06
2023-03-27T08:35:51.411Z,73.18
2023-03-27T08:40:59.248Z,73.34
2023-03-27T08:46:26.004Z,73.46
2023-03-27T08:51:40.562Z,73.29
2023-03-27T08:56:44.210Z,73.65
2023-03-27T09:02:28.799Z,73.82
2023-03-27T09:08:25.062Z,73.67
2023-03-27T09:13:38.594Z,73.94
2023-03-27T09:18:47.709Z,73.87
2023-03-27T09:23:54.198Z,74.16
2023-03-27T09:29:05.177Z,73.58
2023-03-27T09:34:14.176Z,72.63
2023-03-27T09:39:22.622Z,72.46
2023-03-27T09:44:34.365Z,71.31
2023-03-27T09:49:40.878Z,70.77
2023-03-27T09:54:54.175Z,70.42
2023-03-27T10:00:15.600Z,68.95
2023-03-27T10:05:22.170Z,69.32
2023-03-27T10:10:27.878Z,69.96
2023-03-27T10:15:38.665Z,68.87
2023-03-27T10:20:51.612Z,68.82
2023-03-27T10:26:00.864Z,69.54
2023-03-27T10:31:24.771Z,69.52
2023-03-27T10:36:31.625Z,69.36
2023-03-27T10:41:36.921Z,69.61
2023-03-27T10:46:41.129Z,69.73
2023-03-27T10:51:52.634Z,70.50
2023-03-27T10:57:09.744Z,70.69
2023-03-27T11:02:20.686Z,69.56
2023-03-27T11:07:43.333Z,68.91
2023-03-27T11:13:02.653Z,68.46
2023-03-27T11:18:32.991Z,68.75
2023-03-27T11:23:55.941Z,67.83
2023-03-27T11:29:20.550Z,67.61
2023-03-27T11:35:08.359Z,67.11
2023-03-27T11:40:28.645Z,65.63
2023-03-27T11:45:44.929Z,66.27
2023-03-27T11:51:11.997Z,65.37
2023-03-27T11:56:33.724Z,64.74
2023-03-27T12:02:07.742Z,64.35
2023-03-27T12:07:35.300Z,63.54
2023-03-27T12:13:08.330Z,63.34
2023-03-27T12:18:25.693Z,64.12
2023-03-27T12:24:28.656Z,62.99
2023-03-27T12:30:25.589Z,62.34
2023-03-27T12:35:39.623Z,62.78
2023-03-27T12:41:03.009Z,62.70
2023-03-27T12:46:24.274Z,61.73
2023-03-27T12:52:04.923Z,61.71
2023-03-27T12:57:25.083Z,61.74
2023-03-27T13:03:39.989Z,60.83
2023-03-27T13:09:29.073Z,59.88
2023-03-27T13:15:11.623Z,60.26
2023-03-27T13:20:37.304Z,59.42
2023-03-27T13:25:40.430Z,58.33
2023-03-27T13:30:51.563Z,58.22
2023-03-27T13:35:57.745Z,56.38
2023-03-27T13:41:52.687Z,56.74
2023-03-27T13:47:12.077Z,55.96
2023-03-27T13:52:46.904Z,56.56
2023-03-27T13:58:22.046Z,56.61
2023-03-27T14:03:48.778Z,55.32
2023-03-27T14:09:12.528Z,54.99
2023-03-27T14:15:00.821Z,54.33
2023-03-27T14:20:25.201Z,54.99
2023-03-27T14:25:36.560Z,55.34
2023-03-27T14:30:46.534Z,55.75
2023-03-27T14:35:57.214Z,56.24
2023-03-27T14:41:07.887Z,55.46
2023-03-27T14:46:11.891Z,55.92
2023-03-27T14:51:19.918Z,56.36
2023-03-27T14:56:30.863Z,56.37
2023-03-27T15:01:35.391Z,56.11
2023-03-27T15:06:38.976Z,56.73
2023-03-27T15:11:48.085Z,57.12
2023-03-27T15:17:08.257Z,57.52
2023-03-27T15:22:47.553Z,57.52
2023-03-27T15:27:54.137Z,57.81
2023-03-27T15:33:01.988Z,58.12
2023-03-27T15:38:09.592Z,58.43
2023-03-27T15:43:18.396Z,58.37
2023-03-27T15:48:45.587Z,57.94
2023-03-27T15:53:53.745Z,57.45
2023-03-27T15:59:02.695Z,56.76
2023-03-27T16:04:17.038Z,57.09
2023-03-27T16:09:32.319Z,57.98
2023-03-27T16:14:40.843Z,58.30
2023-03-27T16:19:56.128Z,58.55
2023-03-27T16:25:01.859Z,58.20
2023-03-27T16:30:08.180Z,57.08
2023-03-27T16:35:11.563Z,56.62
2023-03-27T16:40:14.894Z,57.10
2023-03-27T16:45:17.981Z,57.31
2023-03-27T16:50:25.688Z,58.19
2023-03-27T16:55:28.605Z,58.65
2023-03-27T17:00:31.784Z,59.13
2023-03-27T17:05:34.855Z,59.90
2023-03-27T17:10:37.820Z,59.91
2023-03-27T17:15:40.825Z,60.04
2023-03-27T17:20:43.792Z,59.40
2023-03-27T17:25:47.412Z,59.64
2023-03-27T17:31:03.267Z,59.29
2023-03-27T17:36:29.787Z,59.31
2023-03-27T17:41:40.009Z,59.04
2023-03-27T17:46:43.148Z,58.76
2023-03-27T17:51:46.106Z,58.68
2023-03-27T17:56:49.184Z,58.80
2023-03-27T18:01:52.276Z,59.57
2023-03-27T18:06:55.298Z,60.87
2023-03-27T18:11:58.234Z,62.00
2023-03-27T18:17:01.312Z,62.19
2023-03-27T18:22:05.246Z,62.58
2023-03-27T18:27:08.089Z,63.32
2023-03-27T18:32:11.064Z,63.85
2023-03-27T18:37:14.142Z,64.12
2023-03-27T18:42:17.720Z,63.77
2023-03-27T18:47:20.726Z,63.38
2023-03-27T18:52:26.941Z,63.12
2023-03-27T18:57:29.942Z,62.63
2023-03-27T19:02:34.273Z,62.59
2023-03-27T19:07:37.842Z,62.98
2023-03-27T19:12:49.771Z,62.93
2023-03-27T19:17:52.907Z,63.75
2023-03-27T19:22:56.141Z,64.64
2023-03-27T19:27:59.103Z,64.32
2023-03-27T19:33:02.584Z,64.78
2023-03-27T19:38:05.788Z,65.18
2023-03-27T19:43:08.735Z,65.06
2023-03-27T19:48:12.840Z,64.84
2023-03-27T19:53:16.041Z,63.98
2023-03-27T19:58:19.158Z,64.33
2023-03-27T20:03:24.412Z,64.29
2023-03-27T20:08:30.519Z,64.14
2023-03-27T20:13:48.893Z,63.52
2023-03-27T20:19:06.150Z,63.29
2023-03-27T20:24:14.022Z,62.98
2023-03-27T20:29:20.830Z,62.13
2023-03-27T20:34:24.189Z,61.51
2023-03-27T20:39:30.094Z,61.24
2023-03-27T20:44:35.979Z,60.61
2023-03-27T20:49:43.222Z,60.84
2023-03-27T20:54:47.590Z,60.84
2023-03-27T20:59:51.333Z,61.33
2023-03-27T21:04:54.275Z,61.82
2023-03-27T21:09:57.743Z,62.19
2023-03-27T21:15:00.879Z,62.33
2023-03-27T21:20:06.085Z,62.17
2023-03-27T21:25:09.485Z,62.41
2023-03-27T21:30:14.229Z,62.74
2023-03-27T21:35:18.560Z,62.28
2023-03-27T21:40:21.688Z,62.05
2023-03-27T21:45:24.793Z,61.45
2023-03-27T21:50:27.849Z,60.95
2023-03-27T21:55:30.848Z,59.45
2023-03-27T22:00:34.126Z,57.43
2023-03-27T22:05:38.731Z,57.10
2023-03-27T22:10:41.677Z,56.02
2023-03-27T22:15:44.637Z,56.60
2023-03-27T22:20:47.610Z,56.85
2023-03-27T22:25:55.034Z,56.26
2023-03-27T22:30:58.117Z,55.76
2023-03-27T22:36:01.538Z,55.47
2023-03-27T22:41:06.933Z,55.78
2023-03-27T22:46:16.000Z,55.51
2023-03-27T22:51:18.969Z,56.27
2023-03-27T22:56:22.025Z,56.84
2023-03-27T23:01:25.150Z,57.21
2023-03-27T23:06:28.488Z,57.26
2023-03-27T23:11:31.455Z,57.34
2023-03-27T23:16:34.430Z,57.42
2023-03-27T23:21:37.393Z,57.30
2023-03-27T23:26:40.438Z,57.75
2023-03-27T23:31:43.406Z,58.03
2023-03-27T23:36:46.409Z,58.27
2023-03-27T23:41:49.329Z,58.16
2023-03-27T23:46:52.291Z,58.46
2023-03-27T23:51:55.302Z,58.77
2023-03-27T23:56:58.354Z,58.91
